Time;durP1;ratioP1;P1;durP2;ratioP2;P2;SDS_P1;SDS_P2;PMS_P1;PMS_P2;Temp;Humidity;BMP_temperature;BMP_pressure;BME280_temperature;BME280_humidity;BME280_pressure;Samples;Min_cycle;Max_cycle;Signal;HPM_P1;HPM_P2
2023/03/26 00:00:23;;;;;;;;;;;21.20;54.60;;;;;;6152781;28;19929;-40
2023/03/26 00:03:25;;;;;;;;;;;21.20;54.70;;;;;;6153194;28;20286;-38
2023/03/26 00:06:27;;;;;;;;;;;21.20;54.60;;;;;;6151631;29;20391;-39
2023/03/26 00:09:32;;;;;;;;;;;21.10;54.60;;;;;;6152936;28;19922;-45
2023/03/26 00:12:33;;;;;;;;;;;21.40;54.80;;;;;;6152979;28;19930;-41
2023/03/26 00:15:35;;;;;;;;;;;21.10;54.70;;;;;;6152641;28;19954;-43
2023/03/26 00:18:39;;;;;;;;;;;21.10;54.60;;;;;;6152374;28;19922;-43
2023/03/26 00:21:40;;;;;;;;;;;21.60;55.10;;;;;;6152665;28;19934;-43
2023/03/26 00:24:44;;;;;;;;;;;21.20;54.70;;;;;;6152300;28;19969;-41
2023/03/26 00:27:46;;;;;;;;;;;21.10;54.80;;;;;;6152166;28;19929;-39
2023/03/26 00:30:47;;;;;;;;;;;21.10;55.00;;;;;;6152940;28;19927;-39
2023/03/26 00:33:50;;;;;;;;;;;21.10;54.80;;;;;;6151379;29;19972;-39
2023/03/26 00:36:53;;;;;;;;;;;21.00;54.80;;;;;;6152613;28;19956;-42
2023/03/26 00:39:58;;;;;;;;;;;21.30;55.00;;;;;;6152239;28;19960;-40
2023/03/26 00:43:08;;;;;;;;;;;21.10;55.00;;;;;;6152344;28;19923;-42
2023/03/26 00:46:10;;;;;;;;;;;21.30;55.20;;;;;;6152196;28;19922;-43
2023/03/26 00:49:13;;;;;;;;;;;21.10;55.00;;;;;;6152255;28;19981;-40
2023/03/26 00:52:17;;;;;;;;;;;22.00;55.30;;;;;;6152064;28;19923;-42
2023/03/26 00:55:19;;;;;;;;;;;21.10;54.70;;;;;;6150736;29;19922;-39
2023/03/26 00:58:22;;;;;;;;;;;20.90;54.80;;;;;;6151833;28;20412;-43
2023/03/26 01:01:26;;;;;;;;;;;21.30;54.80;;;;;;6152277;28;19945;-39
2023/03/26 01:04:29;;;;;;;;;;;21.00;54.90;;;;;;6151771;28;19922;-39
2023/03/26 01:07:34;;;;;;;;;;;21.00;55.00;;;;;;6428930;23;19982;-87
2023/03/26 01:10:41;;;;;;;;;;;19.50;51.40;;;;;;6166953;28;20421;-87
2023/03/26 01:13:45;;;;;;;;;;;22.30;58.00;;;;;;6183597;28;19926;-87
2023/03/26 01:16:54;;;;;;;;;;;21.10;54.30;;;;;;6169177;28;19906;-87
2023/03/26 01:20:04;;;;;;;;;;;19.70;54.30;;;;;;6183937;28;19926;-87
2023/03/26 01:23:06;;;;;;;;;;;20.50;55.00;;;;;;6183487;28;19962;-87
2023/03/26 01:26:14;;;;;;;;;;;21.10;54.10;;;;;;6182805;28;19922;-87
2023/03/26 01:29:19;;;;;;;;;;;20.80;54.70;;;;;;6183576;28;19922;-87
2023/03/26 01:32:27;;;;;;;;;;;21.20;54.10;;;;;;6183140;28;19929;-87
2023/03/26 01:35:34;;;;;;;;;;;20.40;54.60;;;;;;6183143;28;19922;-87
2023/03/26 01:38:45;;;;;;;;;;;18.80;53.40;;;;;;6183255;28;19928;-88
2023/03/26 01:41:52;;;;;;;;;;;21.10;53.90;;;;;;6168615;28;19989;-87
2023/03/26 01:44:58;;;;;;;;;;;20.90;55.40;;;;;;6168664;28;19926;-87
2023/03/26 01:47:59;;;;;;;;;;;21.10;53.90;;;;;;6152326;29;19930;-87
2023/03/26 01:51:03;;;;;;;;;;;20.50;55.50;;;;;;6168838;29;19984;-87
2023/03/26 01:54:08;;;;;;;;;;;22.30;55.90;;;;;;6168048;28;19906;-87
2023/03/26 01:57:16;;;;;;;;;;;21.10;53.80;;;;;;6152473;28;19946;-87
2023/03/26 02:00:22;;;;;;;;;;;20.50;51.70;;;;;;6152864;29;19929;-87
2023/03/26 02:03:26;;;;;;;;;;;21.00;53.90;;;;;;6168364;29;19960;-87
2023/03/26 02:06:33;;;;;;;;;;;21.00;53.70;;;;;;6151614;29;19923;-88
2023/03/26 02:09:37;;;;;;;;;;;21.50;54.80;;;;;;6151756;29;19923;-87
2023/03/26 02:12:41;;;;;;;;;;;21.10;53.80;;;;;;6167771;29;19951;-87
2023/03/26 02:15:55;;;;;;;;;;;21.00;54.00;;;;;;6167538;28;19907;-87
2023/03/26 02:18:59;;;;;;;;;;;18.60;53.20;;;;;;6151741;28;19977;-87
2023/03/26 02:22:02;;;;;;;;;;;21.00;53.90;;;;;;6167150;28;19940;-87
2023/03/26 02:25:07;;;;;;;;;;;21.10;53.90;;;;;;6166567;28;19929;-87
2023/03/26 02:28:11;;;;;;;;;;;20.80;54.40;;;;;;6166396;28;19923;-87
2023/03/26 02:31:20;;;;;;;;;;;19.40;51.30;;;;;;6166227;28;19949;-87
2023/03/26 02:34:22;;;;;;;;;;;18.70;50.60;;;;;;6166106;28;19923;-87
2023/03/26 02:37:29;;;;;;;;;;;20.90;53.80;;;;;;6169231;28;19929;-87
2023/03/26 02:40:40;;;;;;;;;;;21.10;54.80;;;;;;6171241;29;19946;-87
2023/03/26 02:43:42;;;;;;;;;;;21.10;54.50;;;;;;6153635;29;19906;-87
2023/03/26 02:46:48;;;;;;;;;;;20.70;55.10;;;;;;6170248;28;19923;-88
2023/03/26 02:50:02;;;;;;;;;;;21.00;53.60;;;;;;6155093;29;19986;-87
2023/03/26 02:53:22;;;;;;;;;;;20.90;53.50;;;;;;6154602;29;19990;-87
2023/03/26 02:56:32;;;;;;;;;;;21.00;54.60;;;;;;6170257;29;19938;-87
2023/03/26 02:59:49;;;;;;;;;;;20.40;54.90;;;;;;6169584;28;19930;-87
2023/03/26 03:03:03;;;;;;;;;;;20.30;54.70;;;;;;6156923;29;19923;-87
2023/03/26 03:06:13;;;;;;;;;;;20.20;54.80;;;;;;6157374;29;19922;-87
2023/03/26 03:09:20;;;;;;;;;;;22.00;55.60;;;;;;6158705;29;19907;-87
2023/03/26 03:12:41;;;;;;;;;;;20.60;54.80;;;;;;6159231;28;19923;-87
2023/03/26 03:15:44;;;;;;;;;;;21.40;55.30;;;;;;6158032;29;19930;-87
2023/03/26 03:18:52;;;;;;;;;;;20.10;54.60;;;;;;6174891;28;19927;-87
2023/03/26 03:21:56;;;;;;;;;;;21.30;55.30;;;;;;6175031;28;19915;-87
2023/03/26 03:24:58;;;;;;;;;;;21.10;55.60;;;;;;6175106;28;20022;-87
2023/03/26 03:28:01;;;;;;;;;;;21.00;55.20;;;;;;6175454;28;19950;-87
2023/03/26 03:31:04;;;;;;;;;;;20.70;54.70;;;;;;6175187;28;19931;-87
2023/03/26 03:34:07;;;;;;;;;;;20.60;54.90;;;;;;6159716;28;19910;-88
2023/03/26 03:37:13;;;;;;;;;;;21.40;54.60;;;;;;6158961;28;19922;-87
2023/03/26 03:40:23;;;;;;;;;;;20.80;55.10;;;;;;6175192;28;19949;-87
2023/03/26 03:43:28;;;;;;;;;;;20.70;54.80;;;;;;6174942;28;19982;-87
2023/03/26 03:46:40;;;;;;;;;;;22.80;56.50;;;;;;6158742;28;19922;-87
2023/03/26 03:49:44;;;;;;;;;;;20.20;54.20;;;;;;6173381;28;19923;-87
2023/03/26 03:52:46;;;;;;;;;;;21.20;54.50;;;;;;6173644;28;19922;-87
2023/03/26 03:55:54;;;;;;;;;;;21.10;55.30;;;;;;6173450;29;19907;-87
2023/03/26 03:58:59;;;;;;;;;;;21.10;54.20;;;;;;6173239;29;19923;-87
2023/03/26 04:02:07;;;;;;;;;;;20.90;53.60;;;;;;6156950;29;19922;-87
2023/03/26 04:09:46;;;;;;;;;;;20.20;51.20;;;;;;6158138;28;19903;-87
2023/03/26 04:12:52;;;;;;;;;;;20.10;55.40;;;;;;6172370;28;19907;-87
2023/03/26 04:16:02;;;;;;;;;;;20.80;55.50;;;;;;6172911;28;19914;-87
2023/03/26 04:19:05;;;;;;;;;;;20.50;54.60;;;;;;6156504;29;20290;-87
2023/03/26 04:22:10;;;;;;;;;;;19.80;54.30;;;;;;6173366;28;19923;-87
2023/03/26 04:25:29;;;;;;;;;;;20.40;55.20;;;;;;6172976;28;19913;-87
2023/03/26 04:28:42;;;;;;;;;;;20.70;55.40;;;;;;6173292;28;19923;-87
2023/03/26 04:31:57;;;;;;;;;;;20.40;53.80;;;;;;6172710;28;19929;-87
2023/03/26 04:35:02;;;;;;;;;;;20.60;54.60;;;;;;6157050;29;19930;-87
2023/03/26 04:38:05;;;;;;;;;;;20.60;54.90;;;;;;6172055;28;19927;-87
2023/03/26 04:41:11;;;;;;;;;;;20.80;53.60;;;;;;6172707;28;19922;-87
2023/03/26 04:44:33;;;;;;;;;;;20.30;54.50;;;;;;6157271;29;19922;-87
2023/03/26 04:47:41;;;;;;;;;;;20.60;50.80;;;;;;6172755;28;19978;-87
2023/03/26 04:50:46;;;;;;;;;;;21.00;55.50;;;;;;6172781;28;19918;-87
2023/03/26 04:53:50;;;;;;;;;;;20.90;54.80;;;;;;6173015;29;20139;-87
2023/03/26 04:57:01;;;;;;;;;;;20.90;54.40;;;;;;6156344;29;19923;-87
2023/03/26 05:00:13;;;;;;;;;;;20.20;54.50;;;;;;6153149;29;19922;-87
2023/03/26 05:03:15;;;;;;;;;;;20.10;54.00;;;;;;6138404;29;19927;-87
2023/03/26 05:06:20;;;;;;;;;;;21.00;55.00;;;;;;6169842;28;19922;-87
2023/03/26 05:09:26;;;;;;;;;;;19.90;54.80;;;;;;6169142;28;19930;-87
2023/03/26 05:12:42;;;;;;;;;;;22.30;52.40;;;;;;6154038;29;19926;-87
2023/03/26 05:15:49;;;;;;;;;;;19.90;53.80;;;;;;6153699;29;19986;-87
2023/03/26 05:19:10;;;;;;;;;;;21.10;53.90;;;;;;6152590;29;19949;-88
2023/03/26 05:22:12;;;;;;;;;;;20.70;55.30;;;;;;6153440;29;19923;-87
2023/03/26 05:25:33;;;;;;;;;;;20.60;54.90;;;;;;6168854;29;19922;-87
2023/03/26 05:28:36;;;;;;;;;;;20.80;53.40;;;;;;6138250;29;19923;-87
2023/03/26 05:31:51;;;;;;;;;;;20.90;55.60;;;;;;6168001;28;19930;-87
2023/03/26 05:34:53;;;;;;;;;;;20.00;55.00;;;;;;6152209;29;19923;-87
2023/03/26 05:37:56;;;;;;;;;;;20.60;53.80;;;;;;6152789;29;19927;-87
2023/03/26 05:41:00;;;;;;;;;;;21.60;54.90;;;;;;6168494;28;19932;-87
2023/03/26 05:44:02;;;;;;;;;;;21.50;54.70;;;;;;6136554;29;19960;-87
2023/03/26 05:47:05;;;;;;;;;;;20.50;55.00;;;;;;6151890;29;19923;-87
2023/03/26 05:50:09;;;;;;;;;;;20.30;54.80;;;;;;6168435;28;19978;-87
2023/03/26 05:53:14;;;;;;;;;;;20.90;54.50;;;;;;6169052;28;19922;-87
2023/03/26 05:56:36;;;;;;;;;;;20.30;54.60;;;;;;6152775;28;19950;-87
2023/03/26 05:59:57;;;;;;;;;;;20.70;53.40;;;;;;6153576;29;19938;-87
2023/03/26 06:03:13;;;;;;;;;;;22.90;56.80;;;;;;6153499;29;19930;-87
2023/03/26 06:06:38;;;;;;;;;;;20.60;53.20;;;;;;6153073;28;19979;-87
2023/03/26 06:09:42;;;;;;;;;;;19.90;53.70;;;;;;6168835;28;19906;-87
2023/03/26 06:12:44;;;;;;;;;;;20.60;54.20;;;;;;6171299;28;19947;-87
2023/03/26 06:15:47;;;;;;;;;;;20.70;53.80;;;;;;6156724;29;19990;-87
2023/03/26 06:18:57;;;;;;;;;;;20.70;53.10;;;;;;6172999;28;20267;-87
2023/03/26 06:22:19;;;;;;;;;;;21.60;54.40;;;;;;6156668;29;20296;-87
2023/03/26 06:25:43;;;;;;;;;;;20.70;53.30;;;;;;6157378;28;19922;-87
2023/03/26 06:28:56;;;;;;;;;;;21.30;54.80;;;;;;6157096;29;19927;-88
2023/03/26 06:32:09;;;;;;;;;;;20.70;53.30;;;;;;6172761;28;19930;-87
2023/03/26 06:35:28;;;;;;;;;;;20.70;53.40;;;;;;6172282;28;19933;-87
2023/03/26 06:38:31;;;;;;;;;;;20.60;52.90;;;;;;6172242;28;19947;-87
2023/03/26 06:41:38;;;;;;;;;;;20.70;53.00;;;;;;6157122;29;19990;-87
2023/03/26 06:44:55;;;;;;;;;;;20.80;53.40;;;;;;6172144;28;20072;-87
2023/03/26 06:48:11;;;;;;;;;;;20.70;53.00;;;;;;6157188;29;19956;-87
2023/03/26 06:51:32;;;;;;;;;;;20.80;52.90;;;;;;6156487;29;20382;-88
2023/03/26 06:54:52;;;;;;;;;;;20.70;52.80;;;;;;6157405;29;19923;-87
2023/03/26 06:58:13;;;;;;;;;;;20.80;52.90;;;;;;6171340;28;19914;-87
2023/03/26 07:01:32;;;;;;;;;;;19.30;53.40;;;;;;6156471;29;19926;-87
2023/03/26 07:04:52;;;;;;;;;;;20.80;52.80;;;;;;6156660;29;20015;-87
2023/03/26 07:08:12;;;;;;;;;;;20.70;52.70;;;;;;6157272;29;19929;-87
2023/03/26 07:11:34;;;;;;;;;;;20.80;52.80;;;;;;6157079;28;19926;-87
2023/03/26 07:14:53;;;;;;;;;;;20.90;52.80;;;;;;6156330;29;19907;-87
2023/03/26 07:18:13;;;;;;;;;;;20.80;54.20;;;;;;6157043;29;19965;-87
2023/03/26 07:21:20;;;;;;;;;;;20.80;52.70;;;;;;6171680;28;19930;-87
2023/03/26 07:24:22;;;;;;;;;;;19.60;52.50;;;;;;6171245;28;19907;-87
2023/03/26 07:27:38;;;;;;;;;;;20.90;52.70;;;;;;6155776;29;19923;-87
2023/03/26 07:30:51;;;;;;;;;;;20.90;52.70;;;;;;6155495;29;19927;-87
2023/03/26 07:34:21;;;;;;;;;;;18.30;51.90;;;;;;6156078;28;19922;-87
2023/03/26 07:37:47;;;;;;;;;;;21.40;53.30;;;;;;6156477;29;19947;-87
2023/03/26 07:41:05;;;;;;;;;;;21.00;53.40;;;;;;6155563;29;19913;-87
2023/03/26 07:44:33;;;;;;;;;;;20.10;52.50;;;;;;6155548;29;19922;-86
2023/03/26 07:47:55;;;;;;;;;;;19.80;52.60;;;;;;6155892;29;19911;-87
2023/03/26 07:51:01;;;;;;;;;;;20.50;53.80;;;;;;6171020;28;19922;-87
2023/03/26 07:54:22;;;;;;;;;;;20.90;53.60;;;;;;6171645;28;19929;-87
2023/03/26 07:57:46;;;;;;;;;;;20.30;54.00;;;;;;6155034;29;20015;-87
2023/03/26 08:05:30;;;;;;;;;;;20.90;50.40;;;;;;6155166;29;19914;-87
2023/03/26 08:08:46;;;;;;;;;;;21.50;54.30;;;;;;6156429;29;19906;-87
2023/03/26 08:12:14;;;;;;;;;;;20.00;52.70;;;;;;6157579;28;19957;-87
2023/03/26 08:15:20;;;;;;;;;;;20.00;52.60;;;;;;6172865;28;19918;-87
2023/03/26 08:18:26;;;;;;;;;;;21.40;53.50;;;;;;6154989;29;19994;-87
2023/03/26 08:21:32;;;;;;;;;;;21.20;53.50;;;;;;6169721;28;19906;-87
2023/03/26 08:24:38;;;;;;;;;;;21.40;54.50;;;;;;6169363;29;19947;-87
2023/03/26 08:27:42;;;;;;;;;;;20.90;53.80;;;;;;6170197;28;19958;-87
2023/03/26 08:30:45;;;;;;;;;;;21.10;54.00;;;;;;6152800;29;19931;-87
2023/03/26 08:33:49;;;;;;;;;;;20.90;54.60;;;;;;6168171;28;19989;-87
2023/03/26 08:36:54;;;;;;;;;;;20.20;50.30;;;;;;6152340;29;19929;-87
2023/03/26 08:39:58;;;;;;;;;;;20.70;54.10;;;;;;6167873;28;19923;-87
2023/03/26 08:43:13;;;;;;;;;;;20.90;53.60;;;;;;6173736;29;19987;-87
2023/03/26 08:46:29;;;;;;;;;;;21.00;53.50;;;;;;6157277;28;19927;-87
2023/03/26 08:49:42;;;;;;;;;;;20.90;53.50;;;;;;6171369;29;19989;-87
2023/03/26 08:53:00;;;;;;;;;;;21.30;53.70;;;;;;6171146;29;19955;-87
2023/03/26 08:56:11;;;;;;;;;;;21.80;54.00;;;;;;6154168;28;19961;-87
2023/03/26 08:59:33;;;;;;;;;;;20.10;53.60;;;;;;6170992;29;19961;-87
2023/03/26 09:02:45;;;;;;;;;;;21.60;54.00;;;;;;6169169;29;20452;-87
2023/03/26 09:06:00;;;;;;;;;;;21.30;53.90;;;;;;6153844;29;19950;-87
2023/03/26 09:09:18;;;;;;;;;;;20.90;52.90;;;;;;6168343;29;19922;-87
2023/03/26 09:12:34;;;;;;;;;;;23.10;54.70;;;;;;6152496;29;20076;-87
2023/03/26 09:15:46;;;;;;;;;;;18.10;52.10;;;;;;6149769;28;19926;-87
2023/03/26 09:19:02;;;;;;;;;;;20.80;53.00;;;;;;6150017;29;20485;-87
2023/03/26 09:22:19;;;;;;;;;;;21.20;53.80;;;;;;6143817;29;19929;-87
2023/03/26 09:25:33;;;;;;;;;;;20.40;53.30;;;;;;6145375;29;19923;-87
2023/03/26 09:28:49;;;;;;;;;;;21.10;53.80;;;;;;6144495;29;19923;-87
2023/03/26 09:32:02;;;;;;;;;;;20.80;52.90;;;;;;6146053;29;19923;-86
2023/03/26 09:35:12;;;;;;;;;;;21.20;53.90;;;;;;6158844;28;19923;-87
2023/03/26 09:38:22;;;;;;;;;;;20.30;53.30;;;;;;6159388;29;19931;-87
2023/03/26 09:41:31;;;;;;;;;;;19.30;52.60;;;;;;6158365;28;19974;-87
2023/03/26 09:44:46;;;;;;;;;;;20.60;53.20;;;;;;6158858;28;19922;-87
2023/03/26 09:47:57;;;;;;;;;;;20.90;52.80;;;;;;6141146;29;19970;-87
2023/03/26 09:51:12;;;;;;;;;;;22.60;54.40;;;;;;6157133;28;20352;-87
2023/03/26 09:54:26;;;;;;;;;;;20.50;53.30;;;;;;6141249;29;19933;-87
2023/03/26 09:57:44;;;;;;;;;;;18.20;52.00;;;;;;6158545;29;19929;-87
2023/03/26 10:00:51;;;;;;;;;;;20.80;52.80;;;;;;6159495;28;19927;-87
2023/03/26 10:03:59;;;;;;;;;;;21.00;52.80;;;;;;6128407;29;19929;-87
2023/03/26 10:07:04;;;;;;;;;;;23.20;54.70;;;;;;6161299;28;19923;-87
2023/03/26 10:10:11;;;;;;;;;;;19.70;52.70;;;;;;6162217;28;19926;-86
2023/03/26 10:13:20;;;;;;;;;;;21.10;53.60;;;;;;6145242;29;19990;-87
2023/03/26 10:16:26;;;;;;;;;;;22.70;54.30;;;;;;6146626;29;19990;-87
2023/03/26 10:19:37;;;;;;;;;;;20.60;53.10;;;;;;6162249;28;20461;-87
2023/03/26 10:22:46;;;;;;;;;;;20.50;53.10;;;;;;6163451;29;19923;-87
2023/03/26 10:25:55;;;;;;;;;;;20.50;53.30;;;;;;6163502;28;19923;-87
2023/03/26 10:29:08;;;;;;;;;;;20.30;52.90;;;;;;6163810;28;20366;-87
2023/03/26 10:32:17;;;;;;;;;;;21.10;53.40;;;;;;6163431;29;19941;-87
2023/03/26 10:35:24;;;;;;;;;;;20.90;53.20;;;;;;6148060;29;19953;-87
2023/03/26 10:38:31;;;;;;;;;;;20.70;52.80;;;;;;6147647;29;19927;-87
2023/03/26 10:41:40;;;;;;;;;;;19.80;53.30;;;;;;6164581;28;19938;-87
2023/03/26 10:44:54;;;;;;;;;;;19.30;52.10;;;;;;6148730;29;19939;-87
2023/03/26 10:48:06;;;;;;;;;;;21.30;53.00;;;;;;6164336;28;19926;-87
2023/03/26 10:51:19;;;;;;;;;;;21.40;53.00;;;;;;6164738;28;19929;-87
2023/03/26 10:54:28;;;;;;;;;;;21.40;53.00;;;;;;6164360;29;19937;-87
2023/03/26 10:57:36;;;;;;;;;;;21.40;53.30;;;;;;6148700;29;20004;-87
2023/03/26 11:00:41;;;;;;;;;;;20.90;52.70;;;;;;6168156;28;19922;-87
2023/03/26 11:03:45;;;;;;;;;;;21.30;53.00;;;;;;6152384;29;19999;-87
2023/03/26 11:06:54;;;;;;;;;;;18.90;51.70;;;;;;6136765;29;19970;-87
2023/03/26 11:09:59;;;;;;;;;;;21.10;52.10;;;;;;6168568;28;19970;-87
2023/03/26 11:13:06;;;;;;;;;;;21.00;53.00;;;;;;6168939;29;20391;-87
2023/03/26 11:16:14;;;;;;;;;;;19.30;52.10;;;;;;6168100;28;19946;-87
2023/03/26 11:19:20;;;;;;;;;;;19.80;52.10;;;;;;6152554;29;19946;-88
2023/03/26 11:22:27;;;;;;;;;;;19.10;52.00;;;;;;6152585;28;19954;-87
2023/03/26 11:25:40;;;;;;;;;;;21.40;52.90;;;;;;6168994;28;19923;-87
2023/03/26 11:28:58;;;;;;;;;;;20.70;52.90;;;;;;6168925;28;19938;-87
2023/03/26 11:32:21;;;;;;;;;;;19.60;52.10;;;;;;6139990;29;19922;-87
2023/03/26 11:35:26;;;;;;;;;;;21.10;52.10;;;;;;6171089;29;19946;-87
2023/03/26 11:38:45;;;;;;;;;;;18.10;51.30;;;;;;6155186;29;19922;-87
2023/03/26 11:41:54;;;;;;;;;;;18.80;53.10;;;;;;6161852;28;19927;-87
2023/03/26 11:45:04;;;;;;;;;;;21.00;53.20;;;;;;6162693;28;19945;-87
2023/03/26 11:48:11;;;;;;;;;;;21.30;53.40;;;;;;6162423;28;19923;-87
2023/03/26 11:51:17;;;;;;;;;;;20.80;53.60;;;;;;6161234;28;20006;-87
2023/03/26 11:54:21;;;;;;;;;;;21.40;53.20;;;;;;6160948;29;19923;-87
2023/03/26 11:57:25;;;;;;;;;;;20.80;54.40;;;;;;6161118;28;19946;-87
2023/03/26 12:00:28;;;;;;;;;;;20.60;52.70;;;;;;6161641;28;19953;-87
2023/03/26 12:03:30;;;;;;;;;;;21.10;53.30;;;;;;6162055;29;19946;-87
2023/03/26 12:06:34;;;;;;;;;;;21.20;52.80;;;;;;6161443;28;20026;-87
2023/03/26 12:09:48;;;;;;;;;;;20.80;52.40;;;;;;6177256;28;19941;-87
2023/03/26 12:12:51;;;;;;;;;;;21.50;53.80;;;;;;6163683;28;19923;-87
2023/03/26 12:15:56;;;;;;;;;;;21.10;53.50;;;;;;6170658;29;19982;-87
2023/03/26 12:18:59;;;;;;;;;;;21.40;52.60;;;;;;6139241;29;19946;-87
2023/03/26 12:22:01;;;;;;;;;;;19.90;52.10;;;;;;6170162;28;19922;-87
2023/03/26 12:25:14;;;;;;;;;;;20.40;53.70;;;;;;6170420;28;19934;-87
2023/03/26 12:28:17;;;;;;;;;;;21.00;52.70;;;;;;6154706;29;19922;-87
2023/03/26 12:31:19;;;;;;;;;;;20.20;52.80;;;;;;6169691;28;20012;-87
2023/03/26 12:34:23;;;;;;;;;;;21.60;54.30;;;;;;6169760;28;19929;-87
2023/03/26 12:37:33;;;;;;;;;;;21.20;52.90;;;;;;6154509;29;19951;-87
2023/03/26 12:40:38;;;;;;;;;;;21.50;53.00;;;;;;6154241;29;19923;-87
2023/03/26 12:43:40;;;;;;;;;;;22.20;53.80;;;;;;6153592;29;19923;-87
2023/03/26 12:47:12;;;;;;;;;;;21.10;53.00;;;;;;6166822;28;19923;-87
2023/03/26 12:50:38;;;;;;;;;;;20.50;52.30;;;;;;6167573;29;19923;-87
2023/03/26 12:53:44;;;;;;;;;;;20.50;52.30;;;;;;6169284;28;19986;-87
2023/03/26 12:56:51;;;;;;;;;;;21.50;52.90;;;;;;6169553;28;19927;-87
2023/03/26 13:00:21;;;;;;;;;;;20.50;52.80;;;;;;6140176;29;19923;-87
2023/03/26 13:03:37;;;;;;;;;;;20.40;52.10;;;;;;6169583;28;19971;-87
2023/03/26 13:06:43;;;;;;;;;;;20.30;52.10;;;;;;6169210;29;19953;-87
2023/03/26 13:10:10;;;;;;;;;;;21.60;53.60;;;;;;6155860;29;19946;-87
2023/03/26 13:13:24;;;;;;;;;;;20.90;52.30;;;;;;6153070;29;19946;-87
2023/03/26 13:16:29;;;;;;;;;;;22.10;53.10;;;;;;6169615;29;19927;-87
2023/03/26 13:19:36;;;;;;;;;;;22.00;53.20;;;;;;6154058;29;19914;-87
2023/03/26 13:22:50;;;;;;;;;;;21.60;52.40;;;;;;6169075;28;20009;-87
2023/03/26 13:25:56;;;;;;;;;;;20.90;52.10;;;;;;6153268;28;19991;-87
2023/03/26 13:29:04;;;;;;;;;;;20.10;52.70;;;;;;6153463;29;19929;-87
2023/03/26 13:32:11;;;;;;;;;;;22.00;52.80;;;;;;6153186;29;19918;-87
2023/03/26 13:35:20;;;;;;;;;;;22.20;52.80;;;;;;6169308;29;19946;-87
2023/03/26 13:38:26;;;;;;;;;;;21.70;52.70;;;;;;6169615;28;19922;-87
2023/03/26 13:41:35;;;;;;;;;;;21.50;52.60;;;;;;6168759;28;19966;-87
2023/03/26 13:44:42;;;;;;;;;;;21.90;52.70;;;;;;6168110;28;19993;-87
2023/03/26 13:47:46;;;;;;;;;;;20.10;51.90;;;;;;6168395;28;19927;-87
2023/03/26 13:50:52;;;;;;;;;;;21.40;51.90;;;;;;6152265;29;19922;-87
2023/03/26 13:53:56;;;;;;;;;;;22.60;53.10;;;;;;6168956;28;19995;-87
2023/03/26 13:57:01;;;;;;;;;;;22.00;53.00;;;;;;6168725;28;19922;-87
2023/03/26 14:00:05;;;;;;;;;;;20.30;52.50;;;;;;6168335;29;19974;-87
2023/03/26 14:03:18;;;;;;;;;;;22.20;53.70;;;;;;6153154;29;19923;-87
2023/03/26 14:06:27;;;;;;;;;;;20.70;52.40;;;;;;6152522;29;19923;-87
2023/03/26 14:09:30;;;;;;;;;;;21.30;52.60;;;;;;6151862;29;19937;-87
2023/03/26 14:12:37;;;;;;;;;;;21.30;53.00;;;;;;6152758;29;19958;-88
2023/03/26 14:15:42;;;;;;;;;;;20.70;52.10;;;;;;6152355;29;19989;-87
2023/03/26 14:18:46;;;;;;;;;;;20.50;52.40;;;;;;6152736;29;19907;-87
2023/03/26 14:21:54;;;;;;;;;;;20.90;52.20;;;;;;6169019;28;19923;-87
2023/03/26 14:25:03;;;;;;;;;;;21.20;52.50;;;;;;6152667;29;19927;-87
2023/03/26 14:28:14;;;;;;;;;;;21.20;52.50;;;;;;6168336;28;19923;-87
2023/03/26 14:31:19;;;;;;;;;;;21.80;52.70;;;;;;6168719;29;19947;-87
2023/03/26 14:34:29;;;;;;;;;;;21.70;52.50;;;;;;6156375;29;19923;-87
2023/03/26 14:37:43;;;;;;;;;;;21.70;49.80;;;;;;6163668;29;19922;-87
2023/03/26 14:40:49;;;;;;;;;;;21.80;53.20;;;;;;6180194;28;19982;-87
2023/03/26 14:44:04;;;;;;;;;;;22.00;52.80;;;;;;6147856;29;19933;-87
2023/03/26 14:47:12;;;;;;;;;;;21.10;52.30;;;;;;6163628;29;19986;-87
2023/03/26 14:50:25;;;;;;;;;;;21.30;52.50;;;;;;6163603;29;19907;-87
2023/03/26 14:53:29;;;;;;;;;;;22.50;53.10;;;;;;6178801;28;19923;-87
2023/03/26 14:56:37;;;;;;;;;;;21.40;52.60;;;;;;6163471;29;19907;-86
2023/03/26 14:59:52;;;;;;;;;;;23.00;53.40;;;;;;6162833;29;19929;-87
2023/03/26 15:03:09;;;;;;;;;;;21.00;52.40;;;;;;6163158;29;19929;-87
2023/03/26 15:06:18;;;;;;;;;;;21.10;52.30;;;;;;6162476;29;19923;-87
2023/03/26 15:09:32;;;;;;;;;;;20.30;51.90;;;;;;6179618;28;19922;-87
2023/03/26 15:12:45;;;;;;;;;;;21.50;51.80;;;;;;6163230;29;19929;-87
2023/03/26 15:16:03;;;;;;;;;;;21.80;52.60;;;;;;6155918;29;20315;-87
2023/03/26 15:19:20;;;;;;;;;;;22.70;53.00;;;;;;6171467;28;19952;-87
2023/03/26 15:22:30;;;;;;;;;;;21.20;52.50;;;;;;6172409;28;19958;-87
2023/03/26 15:25:44;;;;;;;;;;;21.20;52.40;;;;;;6172185;28;19998;-87
2023/03/26 15:29:02;;;;;;;;;;;22.00;52.30;;;;;;6156069;29;19906;-87
2023/03/26 15:32:13;;;;;;;;;;;20.80;52.00;;;;;;6155945;29;19907;-87
2023/03/26 15:35:31;;;;;;;;;;;20.30;51.80;;;;;;6170160;28;19923;-87
2023/03/26 15:38:42;;;;;;;;;;;19.50;51.50;;;;;;6155730;29;19922;-87
2023/03/26 15:41:53;;;;;;;;;;;21.70;53.20;;;;;;6167555;29;19977;-87
2023/03/26 15:45:02;;;;;;;;;;;18.80;50.90;;;;;;6157680;29;19923;-88
2023/03/26 15:48:17;;;;;;;;;;;20.00;51.70;;;;;;6157032;29;19923;-87
2023/03/26 15:51:33;;;;;;;;;;;22.40;52.80;;;;;;6174098;28;19922;-87
2023/03/26 15:54:53;;;;;;;;;;;18.90;51.20;;;;;;6157345;29;20383;-87
2023/03/26 15:58:00;;;;;;;;;;;21.70;52.40;;;;;;6158431;29;19989;-87
2023/03/26 16:01:17;;;;;;;;;;;19.60;51.30;;;;;;6174230;28;19931;-87
2023/03/26 16:04:28;;;;;;;;;;;21.10;52.20;;;;;;6158212;28;19911;-87
2023/03/26 16:07:46;;;;;;;;;;;22.90;53.40;;;;;;6158444;28;19929;-87
2023/03/26 16:10:50;;;;;;;;;;;22.20;52.40;;;;;;6173945;28;19923;-87
2023/03/26 16:14:07;;;;;;;;;;;20.10;51.40;;;;;;6158415;28;19935;-87
2023/03/26 16:17:12;;;;;;;;;;;22.70;52.70;;;;;;6173839;28;19934;-87
2023/03/26 16:20:22;;;;;;;;;;;22.00;52.40;;;;;;6157794;28;19907;-87
2023/03/26 16:23:27;;;;;;;;;;;21.80;52.30;;;;;;6173859;28;19927;-87
2023/03/26 16:26:36;;;;;;;;;;;21.50;52.00;;;;;;6173697;28;19906;-87
2023/03/26 16:29:55;;;;;;;;;;;21.10;51.60;;;;;;6173633;28;19922;-87
2023/03/26 16:33:08;;;;;;;;;;;22.20;52.40;;;;;;6173579;29;19906;-87
2023/03/26 16:36:24;;;;;;;;;;;21.70;52.00;;;;;;6142516;29;19967;-87
2023/03/26 16:39:38;;;;;;;;;;;20.80;51.50;;;;;;6158076;28;19949;-87
2023/03/26 16:42:41;;;;;;;;;;;22.90;52.60;;;;;;6141947;28;19942;-87
2023/03/26 16:45:46;;;;;;;;;;;22.10;51.20;;;;;;6173385;28;19956;-87
2023/03/26 16:48:50;;;;;;;;;;;21.80;52.60;;;;;;6157935;28;19922;-87
2023/03/26 16:51:59;;;;;;;;;;;22.20;52.20;;;;;;6173730;28;19923;-87
2023/03/26 16:55:10;;;;;;;;;;;22.20;52.20;;;;;;6157347;28;19938;-87
2023/03/26 16:58:14;;;;;;;;;;;22.00;52.20;;;;;;6173709;28;19906;-87
2023/03/26 17:01:20;;;;;;;;;;;22.00;52.20;;;;;;6173642;28;19930;-87
2023/03/26 17:04:26;;;;;;;;;;;22.20;52.50;;;;;;6173341;28;19979;-87
2023/03/26 17:07:32;;;;;;;;;;;21.90;52.90;;;;;;6173296;28;19922;-87
2023/03/26 17:10:37;;;;;;;;;;;22.00;52.40;;;;;;6156918;28;19981;-87
2023/03/26 17:13:44;;;;;;;;;;;20.80;51.40;;;;;;6173005;29;19922;-87
2023/03/26 17:16:47;;;;;;;;;;;20.90;51.70;;;;;;6173107;28;19966;-87
2023/03/26 17:19:54;;;;;;;;;;;21.70;51.30;;;;;;6172894;28;19922;-87
2023/03/26 17:23:00;;;;;;;;;;;19.90;51.50;;;;;;6172981;29;19923;-87
2023/03/26 17:26:08;;;;;;;;;;;21.10;52.10;;;;;;6172791;28;19934;-87
2023/03/26 17:29:23;;;;;;;;;;;22.30;52.60;;;;;;6173275;28;19942;-87
2023/03/26 17:32:43;;;;;;;;;;;21.30;51.50;;;;;;6172516;28;19906;-87
2023/03/26 17:35:48;;;;;;;;;;;22.00;52.00;;;;;;6142716;28;19934;-87
2023/03/26 17:38:57;;;;;;;;;;;21.80;51.20;;;;;;6156555;29;19923;-87
2023/03/26 17:42:11;;;;;;;;;;;19.10;50.60;;;;;;6172550;28;19930;-87
2023/03/26 17:45:16;;;;;;;;;;;21.70;50.90;;;;;;6156917;29;19922;-87
2023/03/26 17:48:20;;;;;;;;;;;23.50;53.00;;;;;;6156509;28;19934;-87
2023/03/26 17:51:29;;;;;;;;;;;21.80;50.90;;;;;;6156518;28;19986;-87
2023/03/26 17:54:38;;;;;;;;;;;20.50;51.20;;;;;;6172637;28;19947;-87
2023/03/26 17:57:43;;;;;;;;;;;22.60;51.90;;;;;;6172692;28;19929;-88
2023/03/26 18:00:48;;;;;;;;;;;20.60;50.20;;;;;;6172669;28;19906;-87
2023/03/26 18:03:52;;;;;;;;;;;23.70;52.90;;;;;;6156516;28;19910;-87
2023/03/26 18:07:03;;;;;;;;;;;20.10;50.90;;;;;;6156387;28;19930;-87
2023/03/26 18:10:16;;;;;;;;;;;20.90;51.10;;;;;;6176656;28;19922;-87
2023/03/26 18:13:25;;;;;;;;;;;21.80;50.80;;;;;;6161055;28;19970;-87
2023/03/26 18:16:29;;;;;;;;;;;23.50;52.20;;;;;;6176489;28;19982;-87
2023/03/26 18:19:45;;;;;;;;;;;20.50;50.80;;;;;;6160882;29;19930;-87
2023/03/26 18:22:47;;;;;;;;;;;21.50;51.30;;;;;;6160401;29;19931;-87
2023/03/26 18:25:54;;;;;;;;;;;22.00;50.80;;;;;;6176092;28;19930;-88
2023/03/26 18:29:07;;;;;;;;;;;22.00;50.80;;;;;;6149728;29;19923;-87